NCAR-RAP Real-Time Weather Data

Output produced by METARs form (17 October 2018  17:06 UTC)
found at http://weather.rap.ucar.edu/surface/
 
RJOH 171600Z 18003KT 9999 FEW030 SCT050 13/11 Q1014
RJOH 171500Z 18003KT 9999 FEW030 SCT050 14/11 Q1014
RJOH 171400Z 17003KT 9999 FEW030 BKN050 14/11 Q1014
RJOH 171300Z 10007KT 9999 FEW030 16/11 Q1014
RJOH 171200Z 07013KT 9999 FEW050 17/11 Q1014
RJOH 171100Z 07013KT 9999 FEW020 SCT/// 17/12 Q1014
RJOH 171000Z 07015KT 9999 FEW020 SCT050 BKN/// 17/11 Q1014
RJOH 170900Z 07014KT 9999 FEW015 SCT030 BKN050 18/09 Q1013
RJOH 170800Z 06012KT 9999 FEW020 BKN070 18/10 Q1013
RJOH 170700Z 06014KT 9999 FEW015 SCT030 BKN080 19/11 Q1013
RJOH 170600Z 05014KT 9999 FEW015 SCT030 BKN080 20/11 Q1012
RJOH 170500Z 04010KT 9999 FEW020 SCT030 BKN080 21/10 Q1012
RJOH 170400Z 06007KT 9999 FEW020 SCT030 BKN070 20/11 Q1012
RJOH 170300Z 06006KT 030V090 9999 FEW015 SCT030 BKN070 19/11 Q1013
RJOH 170200Z 06008KT 9999 -SHRA FEW015 BKN030 FEW030TCU BKN060 19/12 Q1013
RJOH 170100Z 08006KT 050V120 9999 VCSH FEW015 BKN030 FEW030TCU 20/11 Q1013
RJOH 170000Z VRB02KT 9999 FEW030 18/11 Q1013
RJOH 162300Z 10007KT 070V150 9999 FEW010 SCT060 BKN100 17/11 Q1013
RJOH 162200Z 05012KT 9999 -SHRA FEW010 BKN040 BKN060 16/12 Q1013
RJOH 162100Z 31005KT 9999 -SHRA FEW015 FEW030TCU BKN040 BKN060 15/12 Q1013 RETS
RJOH 162000Z 20006KT 9999 TS FEW015 FEW030CB BKN110 15/12 Q1012
RJOH 161900Z 14004KT 9999 FEW040 SCT070 BKN120 15/11 Q1012
RJOH 161800Z 31002KT 9999 FEW040 BKN070 BKN130 16/12 Q1011
RJOH 161700Z 24003KT 9999 FEW030 SCT040 OVC130 16/13 Q1012
RJOH 161600Z 21006KT 9999 FEW040 OVC130 16/12 Q1012
RJOH 161500Z 21004KT 9999 FEW050 SCT080 OVC140 16/12 Q1012
RJOH 161400Z 19005KT 9999 FEW040 SCT050 OVC160 16/13 Q1012
RJOH 161300Z 24004KT 200V330 9999 FEW040 SCT050 BKN160 16/10 Q1012
RJOH 161200Z 35003KT 330V030 9999 FEW050 BKN160 18/08 Q1012
RJOH 161100Z VRB02KT 9999 FEW035 SCT050 BKN170 19/08 Q1012
RJOH 161000Z 02005KT 9999 FEW035 BKN160 19/07 Q1012
RJOH 160900Z 01004KT 9999 FEW035 BKN160 19/08 Q1012
RJOH 160800Z 03007KT 9999 FEW035 BKN150 BKN180 20/08 Q1012
RJOH 160700Z 03007KT 9999 FEW035 SCT150 BKN180 20/08 Q1012
RJOH 160600Z 05008KT 9999 FEW035 BKN180 BKN250 21/09 Q1012
RJOH 160500Z 01007KT 9999 FEW035 BKN250 22/09 Q1013
RJOH 160400Z 05006KT 020V080 9999 FEW030 SCT050 BKN190 21/09 Q1013
RJOH 160300Z 04005KT 010V070 9999 FEW020 BKN030 BKN050 20/09 Q1014
RJOH 160200Z VRB02KT 9999 FEW030 BKN050 BKN250 20/09 Q1015
RJOH 160100Z 24003KT 200V280 9999 FEW030 BKN250 18/12 Q1016
RJOH 160000Z 20004KT 170V230 9999 FEW030 SCT040 BKN250 16/12 Q1016
RJOH 152300Z VRB01KT 9999 FEW030 SCT035 BKN250 15/12 Q1016
RJOH 152200Z 19003KT 9999 FEW007 BKN035 BKN240 13/11 Q1016
RJOH 152100Z 18005KT 9999 FEW030 BKN/// 13/10 Q1016
RJOH 152000Z 17004KT 9999 FEW050 BKN/// 13/10 Q1016
RJOH 151900Z 18003KT 9999 FEW030 BKN050 BKN/// 13/10 Q1017
RJOH 151800Z 19004KT 9999 FEW030 SCT050 BKN/// 13/10 Q1017
RJOH 151700Z VRB02KT 9999 FEW030 BKN/// 13/10 Q1017
RJOH 151600Z VRB02KT 9999 FEW050 BKN/// 13/10 Q1017
RJOH 151500Z 21005KT 9999 FEW050 SCT/// 14/11 Q1017
RJOH 151400Z 20004KT 9999 FEW030 13/11 Q1017
RJOH 151300Z 20005KT 9999 FEW030 14/10 Q1017
RJOH 151200Z 19004KT 9999 FEW030 14/11 Q1017
RJOH 151100Z 19006KT 9999 FEW050 14/11 Q1018
RJOH 151000Z 28003KT 9999 FEW050 18/10 Q1017
RJOH 150900Z 31003KT 9999 FEW045 19/08 Q1017
RJOH 150800Z 30005KT 9999 FEW030 SCT045 20/07 Q1017
RJOH 150700Z 31008KT 9999 FEW030 SCT045 21/06 Q1017
RJOH 150600Z 29008KT 9999 FEW030 SCT040 22/07 Q1016